createdAt,value
2019-02-12T00:00:16.412Z,17.23
2019-02-12T00:03:00.660Z,19.03
2019-02-12T00:05:34.285Z,18.30
2019-02-12T00:08:05.852Z,17.60
2019-02-12T00:13:28.032Z,18.23
2019-02-12T00:15:56.424Z,17.37
2019-02-12T00:18:24.808Z,19.00
2019-02-12T00:20:57.782Z,18.40
2019-02-12T00:23:27.874Z,15.93
2019-02-12T00:25:56.858Z,17.90
2019-02-12T00:28:26.342Z,18.67
2019-02-12T00:30:54.726Z,17.60
2019-02-12T00:33:33.562Z,16.80
2019-02-12T00:36:15.223Z,16.47
2019-02-12T00:38:51.922Z,15.83
2019-02-12T00:41:30.760Z,16.90
2019-02-12T00:44:11.687Z,14.17
2019-02-12T00:46:42.438Z,14.40
2019-02-12T00:49:16.384Z,14.33
2019-02-12T00:51:46.370Z,12.00
2019-02-12T00:54:16.518Z,13.93
2019-02-12T00:56:47.657Z,13.87
2019-02-12T00:59:17.363Z,12.43
2019-02-12T01:01:47.182Z,12.67
2019-02-12T01:04:21.644Z,12.67
2019-02-12T01:06:52.730Z,12.10
2019-02-12T01:09:36.778Z,11.73
2019-02-12T01:12:19.829Z,12.23
2019-02-12T01:14:48.212Z,11.10
2019-02-12T01:17:21.178Z,12.30
2019-02-12T01:19:55.601Z,10.93
2019-02-12T01:22:23.956Z,10.30
2019-02-12T01:24:52.318Z,9.00
2019-02-12T01:27:22.667Z,9.20
2019-02-12T01:29:51.026Z,7.80
2019-02-12T01:32:19.382Z,8.40
2019-02-12T01:34:47.754Z,8.07
2019-02-12T01:37:16.154Z,7.80
2019-02-12T01:39:46.496Z,7.43
2019-02-12T01:42:17.334Z,7.90
2019-02-12T01:44:47.877Z,7.40
2019-02-12T01:47:24.342Z,8.07
2019-02-12T01:49:53.631Z,8.10
2019-02-12T01:52:23.320Z,7.37
2019-02-12T01:54:56.308Z,7.67
2019-02-12T01:57:27.992Z,8.53
2019-02-12T02:00:03.947Z,8.37
2019-02-12T02:02:37.963Z,8.30
2019-02-12T02:05:26.510Z,8.20
2019-02-12T02:07:58.154Z,8.60
2019-02-12T02:10:28.905Z,8.47
2019-02-12T02:12:57.576Z,9.33
2019-02-12T02:15:27.580Z,5.43
2019-02-12T02:17:57.498Z,6.47
2019-02-12T02:20:27.435Z,5.97
2019-02-12T02:22:57.419Z,4.63
2019-02-12T02:25:31.043Z,4.40
2019-02-12T02:28:00.986Z,4.97
2019-02-12T02:30:33.425Z,3.90
2019-02-12T02:33:01.787Z,4.37
2019-02-12T02:35:30.836Z,4.80
2019-02-12T02:38:00.270Z,3.63
2019-02-12T02:40:40.200Z,3.93
2019-02-12T02:43:12.016Z,4.03
2019-02-12T02:45:49.132Z,3.40
2019-02-12T02:48:25.926Z,3.63
2019-02-12T02:51:14.677Z,3.97
2019-02-12T02:53:52.701Z,3.83
2019-02-12T02:56:23.481Z,3.80
2019-02-12T02:58:53.156Z,3.90
2019-02-12T03:01:21.456Z,4.87
2019-02-12T03:03:50.650Z,3.60
2019-02-12T03:06:19.051Z,3.97
2019-02-12T03:08:47.419Z,3.20
2019-02-12T03:11:18.234Z,3.53
2019-02-12T03:14:10.571Z,3.10
2019-02-12T03:16:43.147Z,2.43
2019-02-12T03:19:11.512Z,2.80
2019-02-12T03:21:45.543Z,3.00
2019-02-12T03:24:18.654Z,2.77
2019-02-12T03:29:44.510Z,2.20
2019-02-12T03:32:30.002Z,2.17
2019-02-12T03:37:57.078Z,1.80
2019-02-12T03:40:33.791Z,2.23
2019-02-12T03:43:07.888Z,2.10
2019-02-12T03:45:36.379Z,1.80
2019-02-12T03:48:05.407Z,1.60
2019-02-12T03:50:33.717Z,1.67
2019-02-12T03:53:07.546Z,1.30
2019-02-12T03:55:35.712Z,1.57
2019-02-12T03:58:04.079Z,1.40
2019-02-12T04:00:38.915Z,1.30
2019-02-12T04:03:08.896Z,1.37
2019-02-12T04:05:56.220Z,1.60
2019-02-12T04:08:33.120Z,1.77
2019-02-12T04:11:08.182Z,1.37
2019-02-12T04:13:42.357Z,1.70
2019-02-12T04:16:16.718Z,1.77
2019-02-12T04:18:58.156Z,1.57
2019-02-12T04:21:33.350Z,1.40
2019-02-12T04:24:09.802Z,1.57
2019-02-12T04:26:41.159Z,1.57
2019-02-12T04:29:24.024Z,1.53
2019-02-12T04:32:11.689Z,1.53
2019-02-12T04:34:50.807Z,1.47
2019-02-12T04:37:33.096Z,1.80
2019-02-12T04:46:07.685Z,2.07
2019-02-12T04:48:42.227Z,1.60
2019-02-12T04:51:15.264Z,1.80
2019-02-12T04:53:49.887Z,1.80
2019-02-12T04:56:18.313Z,1.80
2019-02-12T04:58:52.342Z,1.90
2019-02-12T05:01:21.905Z,1.90
2019-02-12T05:03:53.683Z,1.80
2019-02-12T05:06:26.957Z,2.10
2019-02-12T05:09:14.038Z,2.00
2019-02-12T05:11:53.999Z,2.30
2019-02-12T05:14:42.933Z,1.90
2019-02-12T05:17:16.973Z,1.90
2019-02-12T05:19:50.131Z,1.77
2019-02-12T05:25:11.865Z,2.47
2019-02-12T05:30:36.748Z,2.00
2019-02-12T05:33:09.109Z,2.40
2019-02-12T05:35:41.992Z,2.40
2019-02-12T05:38:11.373Z,2.13
2019-02-12T05:40:42.041Z,2.23
2019-02-12T05:43:14.221Z,2.33
2019-02-12T05:45:47.132Z,2.60
2019-02-12T05:51:37.713Z,2.87
2019-02-12T05:54:14.130Z,2.90
2019-02-12T05:56:47.532Z,2.80
2019-02-12T05:59:31.632Z,3.37
2019-02-12T06:02:08.312Z,3.33
2019-02-12T06:04:36.710Z,3.37
2019-02-12T06:07:06.384Z,3.63
2019-02-12T06:09:34.765Z,3.80
2019-02-12T06:12:03.523Z,3.90
2019-02-12T06:14:31.890Z,4.03
2019-02-12T06:17:00.263Z,3.97
2019-02-12T06:19:28.665Z,4.07
2019-02-12T06:21:57.079Z,4.17
2019-02-12T06:24:29.782Z,3.97
2019-02-12T06:27:00.142Z,4.13
2019-02-12T06:29:32.282Z,3.67
2019-02-12T06:32:00.669Z,4.53
2019-02-12T06:34:30.356Z,4.00
2019-02-12T06:36:58.661Z,4.20
2019-02-12T06:39:29.723Z,4.93
2019-02-12T06:41:59.640Z,4.60
2019-02-12T06:44:28.021Z,4.63
2019-02-12T06:46:56.398Z,4.33
2019-02-12T06:49:24.770Z,4.20
2019-02-12T06:51:53.123Z,4.50
2019-02-12T06:54:21.545Z,4.60
2019-02-12T06:56:49.918Z,4.47
2019-02-12T06:59:19.999Z,4.33
2019-02-12T07:01:48.391Z,4.63
2019-02-12T07:04:18.146Z,4.53
2019-02-12T07:07:01.677Z,4.80
2019-02-12T07:09:39.294Z,4.33
2019-02-12T07:12:18.030Z,4.20
2019-02-12T07:15:00.766Z,4.03
2019-02-12T07:17:53.299Z,3.93
2019-02-12T07:20:40.492Z,3.70
2019-02-12T07:23:21.591Z,3.53
2019-02-12T07:25:58.894Z,3.73
2019-02-12T07:28:35.962Z,3.53
2019-02-12T07:34:08.047Z,2.80
2019-02-12T07:36:57.436Z,3.37
2019-02-12T07:39:31.535Z,3.40
2019-02-12T07:42:18.327Z,3.20
2019-02-12T07:44:54.040Z,3.17
2019-02-12T07:47:40.646Z,3.30
2019-02-12T07:50:28.918Z,3.20
2019-02-12T07:53:01.967Z,3.60
2019-02-12T07:55:37.628Z,3.73
2019-02-12T07:58:36.742Z,2.90
2019-02-12T08:01:06.999Z,3.00
2019-02-12T08:03:45.855Z,3.17
2019-02-12T08:06:27.247Z,2.70
2019-02-12T08:09:31.067Z,3.07
2019-02-12T08:12:20.991Z,3.33
2019-02-12T08:15:03.188Z,3.20
2019-02-12T08:17:33.249Z,2.57
2019-02-12T08:20:19.782Z,2.63
2019-02-12T08:22:58.636Z,2.63
2019-02-12T08:25:55.996Z,2.80
2019-02-12T08:28:38.010Z,2.00
2019-02-12T08:31:11.780Z,2.40
2019-02-12T08:33:50.434Z,2.37
2019-02-12T08:36:20.496Z,2.03
2019-02-12T08:39:11.801Z,2.23
2019-02-12T08:41:47.673Z,2.00
2019-02-12T08:44:26.796Z,2.00
2019-02-12T08:47:02.967Z,2.77
2019-02-12T08:49:47.370Z,3.03
2019-02-12T08:52:25.822Z,2.50
2019-02-12T08:54:58.842Z,2.47
2019-02-12T08:57:51.494Z,2.30
2019-02-12T09:00:21.555Z,2.37
2019-02-12T09:03:25.201Z,2.70
2019-02-12T09:06:00.864Z,2.50
2019-02-12T09:08:52.084Z,2.27
2019-02-12T09:11:28.054Z,2.30
2019-02-12T09:13:58.170Z,2.30
2019-02-12T09:16:49.089Z,2.00
2019-02-12T09:19:41.270Z,2.23
2019-02-12T09:22:29.327Z,2.03
2019-02-12T09:25:08.083Z,1.90
2019-02-12T09:27:54.571Z,1.63
2019-02-12T09:30:57.407Z,2.10
2019-02-12T09:33:33.478Z,1.90
2019-02-12T09:36:12.520Z,2.47
2019-02-12T09:39:05.027Z,2.00
2019-02-12T09:41:48.690Z,2.20
2019-02-12T09:47:27.730Z,2.13
2019-02-12T09:50:11.232Z,2.10
2019-02-12T09:53:00.932Z,2.50
2019-02-12T09:55:38.390Z,2.20
2019-02-12T09:58:31.450Z,2.30
2019-02-12T10:01:30.215Z,2.53
2019-02-12T10:04:22.214Z,2.90
2019-02-12T10:06:59.455Z,2.20
2019-02-12T10:10:01.388Z,2.40
2019-02-12T10:12:39.519Z,2.50
2019-02-12T10:15:29.127Z,2.37
2019-02-12T10:18:24.786Z,2.30
2019-02-12T10:21:14.358Z,2.80
2019-02-12T10:24:06.749Z,2.37
2019-02-12T10:26:41.610Z,2.40
2019-02-12T10:29:26.502Z,2.80
2019-02-12T10:32:08.373Z,2.47
2019-02-12T10:34:30.191Z,2.40
2019-02-12T10:37:00.670Z,2.80
2019-02-12T10:39:34.472Z,3.00
2019-02-12T10:42:06.540Z,2.43
2019-02-12T10:44:38.043Z,2.50
2019-02-12T10:47:12.783Z,2.70
2019-02-12T10:49:47.142Z,2.30
2019-02-12T10:52:23.408Z,2.50
2019-02-12T10:57:45.271Z,2.03
2019-02-12T11:00:18.235Z,2.50
2019-02-12T11:02:50.632Z,2.23
2019-02-12T11:05:44.360Z,2.20
2019-02-12T11:08:14.235Z,2.10
2019-02-12T11:10:47.422Z,2.30
2019-02-12T11:13:28.286Z,2.40
2019-02-12T11:16:00.735Z,2.87
2019-02-12T11:18:34.596Z,2.53
2019-02-12T11:21:11.530Z,2.50
2019-02-12T11:23:36.040Z,2.20
2019-02-12T11:26:08.583Z,2.47
2019-02-12T11:28:46.190Z,2.83
2019-02-12T11:31:20.056Z,2.40
2019-02-12T11:33:58.368Z,2.50
2019-02-12T11:36:31.764Z,3.33
2019-02-12T11:39:00.908Z,3.10
2019-02-12T11:41:29.280Z,3.07
2019-02-12T11:43:57.666Z,2.43
2019-02-12T11:46:26.064Z,3.13
2019-02-12T11:48:54.532Z,3.10
2019-02-12T11:51:22.901Z,3.00
2019-02-12T11:53:52.871Z,2.70
2019-02-12T11:56:21.228Z,3.50
2019-02-12T11:58:49.677Z,3.00
2019-02-12T12:01:19.057Z,3.30
2019-02-12T12:03:47.415Z,3.37
2019-02-12T12:06:16.821Z,3.30
2019-02-12T12:08:45.219Z,3.47
2019-02-12T12:11:14.400Z,3.90
2019-02-12T12:13:44.403Z,2.87
2019-02-12T12:16:13.288Z,3.60
2019-02-12T12:18:41.817Z,3.47
2019-02-12T12:21:10.161Z,3.63
2019-02-12T12:23:39.365Z,3.70
2019-02-12T12:26:08.044Z,4.20
2019-02-12T12:28:36.493Z,3.50
2019-02-12T12:31:06.229Z,4.20
2019-02-12T12:33:34.891Z,3.83
2019-02-12T12:36:03.839Z,4.73
2019-02-12T12:38:34.307Z,3.80
2019-02-12T12:41:02.696Z,3.90
2019-02-12T12:43:31.043Z,3.57
2019-02-12T12:45:59.434Z,4.00
2019-02-12T12:48:28.205Z,4.20
2019-02-12T12:50:56.571Z,3.70
2019-02-12T12:53:24.941Z,3.57
2019-02-12T12:55:54.980Z,4.03
2019-02-12T12:58:24.979Z,4.10
2019-02-12T13:00:56.736Z,3.87
2019-02-12T13:03:27.180Z,4.17
2019-02-12T13:05:55.620Z,4.50
2019-02-12T13:08:24.004Z,4.07
2019-02-12T13:10:52.383Z,4.80
2019-02-12T13:13:20.763Z,4.40
2019-02-12T13:15:50.500Z,4.40
2019-02-12T13:18:20.861Z,4.77
2019-02-12T13:20:49.288Z,4.60
2019-02-12T13:23:17.667Z,4.63
2019-02-12T13:25:46.115Z,4.70
2019-02-12T13:28:14.521Z,4.47
2019-02-12T13:30:42.904Z,4.80
2019-02-12T13:33:11.277Z,4.17
2019-02-12T13:35:39.687Z,5.00
2019-02-12T13:38:08.155Z,4.47
2019-02-12T13:40:36.515Z,4.67
2019-02-12T13:43:04.887Z,4.33
2019-02-12T13:45:33.253Z,4.17
2019-02-12T13:48:01.651Z,4.40
2019-02-12T13:50:33.324Z,4.37
2019-02-12T13:53:02.186Z,4.70
2019-02-12T13:55:30.625Z,4.70
2019-02-12T13:57:58.960Z,4.70
2019-02-12T14:00:27.355Z,4.10
2019-02-12T14:02:56.339Z,5.03
2019-02-12T14:05:27.182Z,4.47
2019-02-12T14:07:56.589Z,4.90
2019-02-12T14:10:24.906Z,4.87
2019-02-12T14:12:53.457Z,4.90
2019-02-12T14:15:21.973Z,4.87
2019-02-12T14:17:50.361Z,5.50
2019-02-12T14:20:19.391Z,5.43
2019-02-12T14:22:57.922Z,5.30
2019-02-12T14:25:26.297Z,5.40
2019-02-12T14:27:54.688Z,6.13
2019-02-12T14:30:23.518Z,5.87
2019-02-12T14:32:53.109Z,4.87
2019-02-12T14:35:22.159Z,5.13
2019-02-12T14:37:58.174Z,5.63
2019-02-12T14:40:26.534Z,5.93
2019-02-12T14:42:55.279Z,6.03
2019-02-12T14:45:23.679Z,5.13
2019-02-12T14:47:53.562Z,5.07
2019-02-12T14:50:25.876Z,4.97
2019-02-12T14:52:56.897Z,4.87
2019-02-12T14:58:38.268Z,4.40
2019-02-12T15:09:56.824Z,3.33
2019-02-12T15:12:26.260Z,3.20
2019-02-12T15:14:55.492Z,3.77
2019-02-12T15:17:33.022Z,3.60
2019-02-12T15:20:03.504Z,2.33
2019-02-12T15:22:39.261Z,3.07
2019-02-12T15:25:25.096Z,2.50
2019-02-12T15:27:56.376Z,2.27
2019-02-12T15:30:24.800Z,2.47
2019-02-12T15:32:54.286Z,2.50
2019-02-12T15:35:22.628Z,2.97
2019-02-12T15:37:51.032Z,2.60
2019-02-12T15:40:21.549Z,2.60
2019-02-12T15:42:49.912Z,2.40
2019-02-12T15:45:22.677Z,2.50
2019-02-12T15:47:52.126Z,2.90
2019-02-12T15:50:24.646Z,2.80
2019-02-12T15:52:57.077Z,2.90
2019-02-12T15:55:42.152Z,3.10
2019-02-12T15:58:08.004Z,2.80
2019-02-12T16:03:38.162Z,3.17
2019-02-12T16:06:08.244Z,3.67
2019-02-12T16:08:40.146Z,2.83
2019-02-12T16:11:11.516Z,3.03
2019-02-12T16:13:45.204Z,3.33
2019-02-12T16:16:20.368Z,2.70
2019-02-12T16:18:55.631Z,3.00
2019-02-12T16:21:29.424Z,2.43
2019-02-12T16:24:00.571Z,2.80
2019-02-12T16:26:30.256Z,2.80
2019-02-12T16:29:05.554Z,2.80
2019-02-12T16:31:38.094Z,2.40
2019-02-12T16:34:11.732Z,2.80
2019-02-12T16:36:41.580Z,2.43
2019-02-12T16:39:13.854Z,2.43
2019-02-12T16:41:46.240Z,2.80
2019-02-12T16:44:16.456Z,2.40
2019-02-12T16:46:47.064Z,2.97
2019-02-12T16:49:17.044Z,2.20
2019-02-12T16:51:46.942Z,3.20
2019-02-12T16:54:16.002Z,2.37
2019-02-12T16:56:45.670Z,2.50
2019-02-12T17:00:07.438Z,2.77
2019-02-12T17:01:52.875Z,2.80
2019-02-12T17:04:22.646Z,2.80
2019-02-12T17:06:52.139Z,2.83
2019-02-12T17:09:20.516Z,2.63
2019-02-12T17:11:48.905Z,2.60
2019-02-12T17:14:21.802Z,2.80
2019-02-12T17:16:50.204Z,2.77
2019-02-12T17:19:18.601Z,2.90
2019-02-12T17:21:47.019Z,2.67
2019-02-12T17:24:21.185Z,2.70
2019-02-12T17:26:50.880Z,2.97
2019-02-12T17:29:19.875Z,3.07
2019-02-12T17:31:51.874Z,3.37
2019-02-12T17:34:21.946Z,3.30
2019-02-12T17:36:51.761Z,3.20
2019-02-12T17:39:20.167Z,4.13
2019-02-12T17:41:48.506Z,4.00
2019-02-12T17:44:18.125Z,4.70
2019-02-12T17:46:46.475Z,6.03
2019-02-12T17:49:14.895Z,6.03
2019-02-12T17:51:43.279Z,6.63
2019-02-12T17:54:11.768Z,6.97
2019-02-12T17:56:41.694Z,6.70
2019-02-12T17:59:10.029Z,6.70
2019-02-12T18:01:45.089Z,6.20
2019-02-12T18:04:15.598Z,6.17
2019-02-12T18:06:45.483Z,4.07
2019-02-12T18:09:17.368Z,4.30
2019-02-12T18:11:46.908Z,3.73
2019-02-12T18:14:16.945Z,3.67
2019-02-12T18:16:45.309Z,4.30
2019-02-12T18:19:15.011Z,4.57
2019-02-12T18:21:43.381Z,4.30
2019-02-12T18:24:11.780Z,4.53
2019-02-12T18:26:40.154Z,4.93
2019-02-12T18:29:09.075Z,5.03
2019-02-12T18:31:37.491Z,4.83
2019-02-12T18:34:05.859Z,4.87
2019-02-12T18:36:34.230Z,5.13
2019-02-12T18:39:04.335Z,5.50
2019-02-12T18:41:32.717Z,5.47
2019-02-12T18:44:03.989Z,6.00
2019-02-12T18:46:32.382Z,6.60
2019-02-12T18:49:00.743Z,7.87
2019-02-12T18:51:29.123Z,7.90
2019-02-12T18:53:57.607Z,6.67
2019-02-12T18:56:26.850Z,7.27
2019-02-12T18:58:55.216Z,7.23
2019-02-12T19:01:23.695Z,7.23
2019-02-12T19:03:56.638Z,6.67
2019-02-12T19:06:27.460Z,7.60
2019-02-12T19:09:05.803Z,7.70
2019-02-12T19:11:45.714Z,8.13
2019-02-12T19:14:05.601Z,7.80
2019-02-12T19:16:34.467Z,7.83
2019-02-12T19:19:03.471Z,7.13
2019-02-12T19:21:33.887Z,6.77
2019-02-12T19:24:04.213Z,7.63
2019-02-12T19:29:27.819Z,8.13
2019-02-12T19:31:59.386Z,7.07
2019-02-12T19:34:31.168Z,7.90
2019-02-12T19:36:59.499Z,9.27
2019-02-12T19:39:27.945Z,10.13
2019-02-12T19:41:56.694Z,9.57
2019-02-12T19:44:25.257Z,9.00
2019-02-12T19:46:53.632Z,11.50
2019-02-12T19:49:23.226Z,10.27
2019-02-12T19:51:51.605Z,10.20
2019-02-12T19:54:27.050Z,9.40
2019-02-12T19:57:03.624Z,10.73
2019-02-12T19:59:32.611Z,10.43
2019-02-12T20:02:01.012Z,11.00
2019-02-12T20:04:32.955Z,11.27
2019-02-12T20:07:03.871Z,10.80
2019-02-12T20:09:32.890Z,11.43
2019-02-12T20:12:01.285Z,12.30
2019-02-12T20:14:32.453Z,13.33
2019-02-12T20:17:00.875Z,12.50
2019-02-12T20:19:29.295Z,13.97
2019-02-12T20:22:01.143Z,14.70
2019-02-12T20:24:33.499Z,14.93
2019-02-12T20:27:06.773Z,13.80
2019-02-12T20:29:37.207Z,16.70
2019-02-12T20:32:05.558Z,15.30
2019-02-12T20:34:39.029Z,14.77
2019-02-12T20:37:15.605Z,14.57
2019-02-12T20:39:56.300Z,15.90
2019-02-12T20:42:26.002Z,15.70
2019-02-12T20:44:57.392Z,15.00
2019-02-12T20:47:30.491Z,14.30
2019-02-12T20:50:04.498Z,15.73
2019-02-12T20:52:35.456Z,13.90
2019-02-12T20:55:25.567Z,14.23
2019-02-12T20:57:56.759Z,12.03
2019-02-12T21:00:25.546Z,15.10
2019-02-12T21:02:56.061Z,14.47
2019-02-12T21:05:34.478Z,13.67
2019-02-12T21:08:14.240Z,13.80
2019-02-12T21:11:01.998Z,13.20
2019-02-12T21:13:36.577Z,14.07
2019-02-12T21:16:11.717Z,12.97
2019-02-12T21:21:37.244Z,13.17
2019-02-12T21:24:12.589Z,12.60
2019-02-12T21:27:02.475Z,13.60
2019-02-12T21:29:32.520Z,13.03
2019-02-12T21:32:02.013Z,13.13
2019-02-12T21:34:33.821Z,12.10
2019-02-12T21:37:02.255Z,11.80
2019-02-12T21:39:32.172Z,12.33
2019-02-12T21:42:00.849Z,12.63
2019-02-12T21:44:29.743Z,11.60
2019-02-12T21:46:59.759Z,11.33
2019-02-12T21:49:37.037Z,11.60
2019-02-12T21:52:06.044Z,11.00
2019-02-12T21:54:34.435Z,10.83
2019-02-12T21:57:04.690Z,11.23
2019-02-12T21:59:33.291Z,11.27
2019-02-12T22:02:03.734Z,11.00
2019-02-12T22:04:34.812Z,11.20
2019-02-12T22:07:06.244Z,11.00
2019-02-12T22:09:39.114Z,11.10
2019-02-12T22:12:07.521Z,11.87
2019-02-12T22:14:36.515Z,11.30
2019-02-12T22:17:05.527Z,11.17
2019-02-12T22:19:36.655Z,11.77
2019-02-12T22:22:05.130Z,11.60
2019-02-12T22:24:35.198Z,12.17
2019-02-12T22:27:04.148Z,11.53
2019-02-12T22:29:32.515Z,11.27
2019-02-12T22:32:00.951Z,11.57
2019-02-12T22:34:31.062Z,12.07
2019-02-12T22:37:04.748Z,13.63
2019-02-12T22:39:43.504Z,12.40
2019-02-12T22:42:14.170Z,13.43
2019-02-12T22:44:42.916Z,13.03
2019-02-12T22:47:11.372Z,13.23
2019-02-12T22:49:39.818Z,13.70
2019-02-12T22:52:08.228Z,14.07
2019-02-12T22:54:36.934Z,12.90
2019-02-12T22:57:07.092Z,13.67
2019-02-12T22:59:37.045Z,13.50
2019-02-12T23:02:05.641Z,13.57
2019-02-12T23:04:35.119Z,12.67
2019-02-12T23:07:05.388Z,11.80
2019-02-12T23:09:36.534Z,11.07
2019-02-12T23:12:05.982Z,12.27
2019-02-12T23:14:38.931Z,11.40
2019-02-12T23:17:08.934Z,12.00
2019-02-12T23:19:39.630Z,10.90
2019-02-12T23:22:07.942Z,12.07
2019-02-12T23:24:42.832Z,10.53
2019-02-12T23:27:11.919Z,11.37
2019-02-12T23:29:40.295Z,10.50
2019-02-12T23:32:11.468Z,10.77
2019-02-12T23:34:39.838Z,10.67
2019-02-12T23:37:08.216Z,10.13
2019-02-12T23:39:40.916Z,11.07
2019-02-12T23:42:10.223Z,10.77
2019-02-12T23:44:40.584Z,10.50
2019-02-12T23:47:10.530Z,10.80
2019-02-12T23:49:40.214Z,10.93
2019-02-12T23:52:08.592Z,11.13
2019-02-12T23:54:41.028Z,10.33
2019-02-12T23:58:07.268Z,9.20
